sensor_id;sensor_type;location;lat;lon;timestamp;temperature;humidity
19039;DHT22;9652;49.014;12.052;2023-10-09T00:02:45;16.10;68.00
19039;DHT22;9652;49.014;12.052;2023-10-09T00:05:14;16.10;68.00
19039;DHT22;9652;49.014;12.052;2023-10-09T00:07:49;16.00;68.90
19039;DHT22;9652;49.014;12.052;2023-10-09T00:10:19;16.00;68.20
19039;DHT22;9652;49.014;12.052;2023-10-09T00:12:46;16.00;68.30
19039;DHT22;9652;49.014;12.052;2023-10-09T00:15:16;16.00;68.40
19039;DHT22;9652;49.014;12.052;2023-10-09T00:17:43;15.90;68.50
19039;DHT22;9652;49.014;12.052;2023-10-09T00:20:12;15.90;68.40
19039;DHT22;9652;49.014;12.052;2023-10-09T00:22:56;15.90;68.40
19039;DHT22;9652;49.014;12.052;2023-10-09T00:25:23;15.90;68.30
19039;DHT22;9652;49.014;12.052;2023-10-09T00:27:55;15.90;68.30
19039;DHT22;9652;49.014;12.052;2023-10-09T00:30:26;15.80;68.30
19039;DHT22;9652;49.014;12.052;2023-10-09T00:32:55;15.80;68.50
19039;DHT22;9652;49.014;12.052;2023-10-09T00:35:27;15.80;68.50
19039;DHT22;9652;49.014;12.052;2023-10-09T00:38:07;15.80;68.80
19039;DHT22;9652;49.014;12.052;2023-10-09T00:40:40;15.80;68.90
19039;DHT22;9652;49.014;12.052;2023-10-09T00:43:12;15.80;69.20
19039;DHT22;9652;49.014;12.052;2023-10-09T00:45:41;15.80;69.40
19039;DHT22;9652;49.014;12.052;2023-10-09T00:48:11;15.80;69.60
19039;DHT22;9652;49.014;12.052;2023-10-09T00:50:41;15.80;69.60
19039;DHT22;9652;49.014;12.052;2023-10-09T00:53:18;15.90;69.70
19039;DHT22;9652;49.014;12.052;2023-10-09T00:55:57;15.80;69.70
19039;DHT22;9652;49.014;12.052;2023-10-09T00:58:31;16.00;69.80
19039;DHT22;9652;49.014;12.052;2023-10-09T01:01:03;15.90;69.70
19039;DHT22;9652;49.014;12.052;2023-10-09T01:03:34;15.90;69.80
19039;DHT22;9652;49.014;12.052;2023-10-09T01:06:05;16.00;69.70
19039;DHT22;9652;49.014;12.052;2023-10-09T01:08:42;16.00;69.80
19039;DHT22;9652;49.014;12.052;2023-10-09T01:11:13;16.00;69.80
19039;DHT22;9652;49.014;12.052;2023-10-09T01:13:44;16.00;69.80
19039;DHT22;9652;49.014;12.052;2023-10-09T01:16:22;16.10;69.80
19039;DHT22;9652;49.014;12.052;2023-10-09T01:18:51;16.10;69.80
19039;DHT22;9652;49.014;12.052;2023-10-09T01:21:19;16.10;69.70
19039;DHT22;9652;49.014;12.052;2023-10-09T01:23:52;16.10;69.70
19039;DHT22;9652;49.014;12.052;2023-10-09T01:26:29;16.10;69.70
19039;DHT22;9652;49.014;12.052;2023-10-09T01:29:00;16.10;69.50
19039;DHT22;9652;49.014;12.052;2023-10-09T01:31:27;16.10;69.50
19039;DHT22;9652;49.014;12.052;2023-10-09T01:34:03;16.10;69.50
19039;DHT22;9652;49.014;12.052;2023-10-09T01:36:35;16.10;69.50
19039;DHT22;9652;49.014;12.052;2023-10-09T01:39:06;15.90;69.50
19039;DHT22;9652;49.014;12.052;2023-10-09T01:41:38;16.10;69.70
19039;DHT22;9652;49.014;12.052;2023-10-09T01:44:12;16.10;69.80
19039;DHT22;9652;49.014;12.052;2023-10-09T01:46:42;16.10;69.90
19039;DHT22;9652;49.014;12.052;2023-10-09T01:49:11;16.10;69.90
19039;DHT22;9652;49.014;12.052;2023-10-09T01:51:47;16.20;70.10
19039;DHT22;9652;49.014;12.052;2023-10-09T01:54:17;16.20;70.10
19039;DHT22;9652;49.014;12.052;2023-10-09T01:56:59;16.20;70.30
19039;DHT22;9652;49.014;12.052;2023-10-09T01:59:32;16.20;70.30
19039;DHT22;9652;49.014;12.052;2023-10-09T02:02:04;16.20;70.30
19039;DHT22;9652;49.014;12.052;2023-10-09T02:04:40;16.30;70.40
19039;DHT22;9652;49.014;12.052;2023-10-09T02:07:07;16.30;70.30
19039;DHT22;9652;49.014;12.052;2023-10-09T02:09:36;16.30;70.30
19039;DHT22;9652;49.014;12.052;2023-10-09T02:12:11;16.30;70.40
19039;DHT22;9652;49.014;12.052;2023-10-09T02:14:39;16.30;70.30
19039;DHT22;9652;49.014;12.052;2023-10-09T02:17:08;16.30;70.30
19039;DHT22;9652;49.014;12.052;2023-10-09T02:19:44;16.30;70.30
19039;DHT22;9652;49.014;12.052;2023-10-09T02:22:14;16.30;70.30
19039;DHT22;9652;49.014;12.052;2023-10-09T02:24:45;16.30;70.30
19039;DHT22;9652;49.014;12.052;2023-10-09T02:27:24;16.30;70.50
19039;DHT22;9652;49.014;12.052;2023-10-09T02:30:11;16.40;70.40
19039;DHT22;9652;49.014;12.052;2023-10-09T02:32:44;16.40;70.50
19039;DHT22;9652;49.014;12.052;2023-10-09T02:35:15;16.40;70.60
19039;DHT22;9652;49.014;12.052;2023-10-09T02:37:57;16.40;70.60
19039;DHT22;9652;49.014;12.052;2023-10-09T02:40:28;16.40;70.60
19039;DHT22;9652;49.014;12.052;2023-10-09T02:42:58;16.40;70.80
19039;DHT22;9652;49.014;12.052;2023-10-09T02:45:26;16.40;70.80
19039;DHT22;9652;49.014;12.052;2023-10-09T02:48:04;16.40;70.80
19039;DHT22;9652;49.014;12.052;2023-10-09T02:50:36;16.40;70.80
19039;DHT22;9652;49.014;12.052;2023-10-09T02:53:08;16.50;70.90
19039;DHT22;9652;49.014;12.052;2023-10-09T02:55:45;16.50;70.90
19039;DHT22;9652;49.014;12.052;2023-10-09T02:58:29;16.50;70.90
19039;DHT22;9652;49.014;12.052;2023-10-09T03:00:58;16.50;70.80
19039;DHT22;9652;49.014;12.052;2023-10-09T03:03:26;16.50;70.80
19039;DHT22;9652;49.014;12.052;2023-10-09T03:05:53;16.50;70.80
19039;DHT22;9652;49.014;12.052;2023-10-09T03:08:21;16.50;70.80
19039;DHT22;9652;49.014;12.052;2023-10-09T03:10:49;16.50;71.60
19039;DHT22;9652;49.014;12.052;2023-10-09T03:13:16;16.50;70.80
19039;DHT22;9652;49.014;12.052;2023-10-09T03:15:46;16.50;70.80
19039;DHT22;9652;49.014;12.052;2023-10-09T03:18:14;16.50;70.80
19039;DHT22;9652;49.014;12.052;2023-10-09T03:20:42;16.50;70.90
19039;DHT22;9652;49.014;12.052;2023-10-09T03:23:11;16.50;70.90
19039;DHT22;9652;49.014;12.052;2023-10-09T03:25:40;16.50;70.90
19039;DHT22;9652;49.014;12.052;2023-10-09T03:30:52;16.50;71.00
19039;DHT22;9652;49.014;12.052;2023-10-09T03:33:19;16.50;71.20
19039;DHT22;9652;49.014;12.052;2023-10-09T03:35:49;16.50;71.20
19039;DHT22;9652;49.014;12.052;2023-10-09T03:38:16;16.50;71.10
19039;DHT22;9652;49.014;12.052;2023-10-09T03:40:44;16.60;71.20
19039;DHT22;9652;49.014;12.052;2023-10-09T03:43:13;16.50;71.10
19039;DHT22;9652;49.014;12.052;2023-10-09T03:45:40;16.50;71.10
19039;DHT22;9652;49.014;12.052;2023-10-09T03:48:16;16.50;71.10
19039;DHT22;9652;49.014;12.052;2023-10-09T03:50:47;16.50;71.10
19039;DHT22;9652;49.014;12.052;2023-10-09T03:53:25;16.60;71.10
19039;DHT22;9652;49.014;12.052;2023-10-09T03:55:52;16.60;71.00
19039;DHT22;9652;49.014;12.052;2023-10-09T03:58:19;16.60;71.10
19039;DHT22;9652;49.014;12.052;2023-10-09T04:00:47;16.50;71.00
19039;DHT22;9652;49.014;12.052;2023-10-09T04:03:16;16.50;71.00
19039;DHT22;9652;49.014;12.052;2023-10-09T04:05:46;16.60;71.00
19039;DHT22;9652;49.014;12.052;2023-10-09T04:08:13;16.50;70.90
19039;DHT22;9652;49.014;12.052;2023-10-09T04:10:45;16.60;71.00
19039;DHT22;9652;49.014;12.052;2023-10-09T04:13:18;16.50;70.90
19039;DHT22;9652;49.014;12.052;2023-10-09T04:15:50;16.50;70.90
19039;DHT22;9652;49.014;12.052;2023-10-09T04:18:20;16.50;70.90
19039;DHT22;9652;49.014;12.052;2023-10-09T04:20:55;16.50;71.00
19039;DHT22;9652;49.014;12.052;2023-10-09T04:23:44;16.50;71.00
19039;DHT22;9652;49.014;12.052;2023-10-09T04:26:36;16.50;70.90
19039;DHT22;9652;49.014;12.052;2023-10-09T04:29:05;16.50;71.00
19039;DHT22;9652;49.014;12.052;2023-10-09T04:31:36;16.40;70.90
19039;DHT22;9652;49.014;12.052;2023-10-09T04:34:05;16.40;70.90
19039;DHT22;9652;49.014;12.052;2023-10-09T04:36:48;16.40;71.10
19039;DHT22;9652;49.014;12.052;2023-10-09T04:39:17;16.40;71.00
19039;DHT22;9652;49.014;12.052;2023-10-09T04:42:11;16.40;71.10
19039;DHT22;9652;49.014;12.052;2023-10-09T04:44:52;16.40;71.10
19039;DHT22;9652;49.014;12.052;2023-10-09T04:47:37;16.40;71.10
19039;DHT22;9652;49.014;12.052;2023-10-09T04:50:16;16.40;71.10
19039;DHT22;9652;49.014;12.052;2023-10-09T04:52:57;16.20;71.10
19039;DHT22;9652;49.014;12.052;2023-10-09T04:55:44;16.30;71.10
19039;DHT22;9652;49.014;12.052;2023-10-09T04:58:20;16.30;71.10
19039;DHT22;9652;49.014;12.052;2023-10-09T05:00:54;16.30;71.10
19039;DHT22;9652;49.014;12.052;2023-10-09T05:03:41;16.30;71.10
19039;DHT22;9652;49.014;12.052;2023-10-09T05:06:19;16.20;71.10
19039;DHT22;9652;49.014;12.052;2023-10-09T05:09:04;16.20;71.20
19039;DHT22;9652;49.014;12.052;2023-10-09T05:11:40;16.20;71.30
19039;DHT22;9652;49.014;12.052;2023-10-09T05:14:19;16.20;71.30
19039;DHT22;9652;49.014;12.052;2023-10-09T05:17:03;16.20;71.40
19039;DHT22;9652;49.014;12.052;2023-10-09T05:19:35;16.20;71.30
19039;DHT22;9652;49.014;12.052;2023-10-09T05:22:10;16.20;71.50
19039;DHT22;9652;49.014;12.052;2023-10-09T05:24:56;16.20;71.50
19039;DHT22;9652;49.014;12.052;2023-10-09T05:27:23;16.10;71.20
19039;DHT22;9652;49.014;12.052;2023-10-09T05:30:11;16.10;71.20
19039;DHT22;9652;49.014;12.052;2023-10-09T05:32:54;16.10;71.20
19039;DHT22;9652;49.014;12.052;2023-10-09T05:35:24;16.10;71.40
19039;DHT22;9652;49.014;12.052;2023-10-09T05:38:08;16.10;71.50
19039;DHT22;9652;49.014;12.052;2023-10-09T05:40:51;16.00;71.60
19039;DHT22;9652;49.014;12.052;2023-10-09T05:43:20;16.00;71.60
19039;DHT22;9652;49.014;12.052;2023-10-09T05:46:05;16.00;72.40
19039;DHT22;9652;49.014;12.052;2023-10-09T05:48:35;16.00;71.70
19039;DHT22;9652;49.014;12.052;2023-10-09T05:51:21;16.00;71.80
19039;DHT22;9652;49.014;12.052;2023-10-09T05:54:07;16.00;71.90
19039;DHT22;9652;49.014;12.052;2023-10-09T05:56:52;16.00;72.00
19039;DHT22;9652;49.014;12.052;2023-10-09T05:59:37;16.10;72.10
19039;DHT22;9652;49.014;12.052;2023-10-09T06:02:21;16.10;72.20
19039;DHT22;9652;49.014;12.052;2023-10-09T06:05:06;16.10;72.30
19039;DHT22;9652;49.014;12.052;2023-10-09T06:07:54;16.10;72.40
19039;DHT22;9652;49.014;12.052;2023-10-09T06:10:33;16.10;72.40
19039;DHT22;9652;49.014;12.052;2023-10-09T06:13:07;16.20;72.60
19039;DHT22;9652;49.014;12.052;2023-10-09T06:15:55;16.20;72.60
19039;DHT22;9652;49.014;12.052;2023-10-09T06:18:42;16.30;72.70
19039;DHT22;9652;49.014;12.052;2023-10-09T06:21:09;16.20;72.70
19039;DHT22;9652;49.014;12.052;2023-10-09T06:23:55;16.40;72.80
19039;DHT22;9652;49.014;12.052;2023-10-09T06:26:43;16.40;72.90
19039;DHT22;9652;49.014;12.052;2023-10-09T06:29:29;16.50;73.00
19039;DHT22;9652;49.014;12.052;2023-10-09T06:32:01;16.50;73.00
19039;DHT22;9652;49.014;12.052;2023-10-09T06:35:00;16.60;72.80
19039;DHT22;9652;49.014;12.052;2023-10-09T06:37:45;16.70;72.80
19039;DHT22;9652;49.014;12.052;2023-10-09T06:40:31;16.70;72.80
19039;DHT22;9652;49.014;12.052;2023-10-09T06:43:22;16.80;72.90
19039;DHT22;9652;49.014;12.052;2023-10-09T06:45:58;16.90;73.00
19039;DHT22;9652;49.014;12.052;2023-10-09T06:48:45;17.00;72.90
19039;DHT22;9652;49.014;12.052;2023-10-09T06:51:12;17.10;72.90
19039;DHT22;9652;49.014;12.052;2023-10-09T06:54:02;17.20;72.90
19039;DHT22;9652;49.014;12.052;2023-10-09T06:56:35;17.20;72.80
19039;DHT22;9652;49.014;12.052;2023-10-09T06:59:21;17.30;72.80
19039;DHT22;9652;49.014;12.052;2023-10-09T07:01:50;17.40;72.80
19039;DHT22;9652;49.014;12.052;2023-10-09T07:04:31;17.50;72.90
19039;DHT22;9652;49.014;12.052;2023-10-09T07:07:12;17.60;72.90
19039;DHT22;9652;49.014;12.052;2023-10-09T07:09:42;17.70;72.80
19039;DHT22;9652;49.014;12.052;2023-10-09T07:12:29;17.80;72.80
19039;DHT22;9652;49.014;12.052;2023-10-09T07:15:00;17.90;72.50
19039;DHT22;9652;49.014;12.052;2023-10-09T07:17:44;18.10;72.40
19039;DHT22;9652;49.014;12.052;2023-10-09T07:20:11;18.20;72.20
19039;DHT22;9652;49.014;12.052;2023-10-09T07:22:39;18.30;72.10
19039;DHT22;9652;49.014;12.052;2023-10-09T07:25:19;18.30;71.80
19039;DHT22;9652;49.014;12.052;2023-10-09T07:28:09;18.50;71.60
19039;DHT22;9652;49.014;12.052;2023-10-09T07:31:03;18.50;71.50
19039;DHT22;9652;49.014;12.052;2023-10-09T07:33:34;18.60;71.40
19039;DHT22;9652;49.014;12.052;2023-10-09T07:36:15;18.70;71.40
19039;DHT22;9652;49.014;12.052;2023-10-09T07:38:56;18.80;71.30
19039;DHT22;9652;49.014;12.052;2023-10-09T07:41:33;19.00;71.20
19039;DHT22;9652;49.014;12.052;2023-10-09T07:44:05;18.90;70.80
19039;DHT22;9652;49.014;12.052;2023-10-09T07:47:01;19.00;70.80
19039;DHT22;9652;49.014;12.052;2023-10-09T07:49:45;19.10;70.70
19039;DHT22;9652;49.014;12.052;2023-10-09T07:52:18;19.10;70.60
19039;DHT22;9652;49.014;12.052;2023-10-09T07:54:48;19.20;70.60
19039;DHT22;9652;49.014;12.052;2023-10-09T07:57:27;19.30;70.60
19039;DHT22;9652;49.014;12.052;2023-10-09T08:00:05;19.40;70.60
19039;DHT22;9652;49.014;12.052;2023-10-09T08:03:00;19.50;70.50
19039;DHT22;9652;49.014;12.052;2023-10-09T08:05:35;19.50;70.20
19039;DHT22;9652;49.014;12.052;2023-10-09T08:08:10;19.60;70.00
19039;DHT22;9652;49.014;12.052;2023-10-09T08:11:00;19.70;70.00
19039;DHT22;9652;49.014;12.052;2023-10-09T08:13:44;19.80;69.80
19039;DHT22;9652;49.014;12.052;2023-10-09T08:16:26;19.80;69.60
19039;DHT22;9652;49.014;12.052;2023-10-09T08:19:03;19.90;69.50
19039;DHT22;9652;49.014;12.052;2023-10-09T08:21:56;20.00;69.40
19039;DHT22;9652;49.014;12.052;2023-10-09T08:25:03;20.10;69.10
19039;DHT22;9652;49.014;12.052;2023-10-09T08:27:31;20.20;69.00
19039;DHT22;9652;49.014;12.052;2023-10-09T08:30:13;20.30;69.10
19039;DHT22;9652;49.014;12.052;2023-10-09T08:32:54;20.40;69.00
19039;DHT22;9652;49.014;12.052;2023-10-09T08:35:29;20.40;68.80
19039;DHT22;9652;49.014;12.052;2023-10-09T08:37:58;20.50;68.70
19039;DHT22;9652;49.014;12.052;2023-10-09T08:40:33;20.60;68.40
19039;DHT22;9652;49.014;12.052;2023-10-09T08:43:08;20.70;68.20
19039;DHT22;9652;49.014;12.052;2023-10-09T08:45:38;20.80;67.70
19039;DHT22;9652;49.014;12.052;2023-10-09T08:48:07;20.80;67.70
19039;DHT22;9652;49.014;12.052;2023-10-09T08:50:42;21.00;67.60
19039;DHT22;9652;49.014;12.052;2023-10-09T08:53:10;21.10;67.40
19039;DHT22;9652;49.014;12.052;2023-10-09T08:55:38;21.20;67.30
19039;DHT22;9652;49.014;12.052;2023-10-09T08:58:07;21.20;66.90
19039;DHT22;9652;49.014;12.052;2023-10-09T09:00:44;21.30;66.70
19039;DHT22;9652;49.014;12.052;2023-10-09T09:03:13;21.40;66.60
19039;DHT22;9652;49.014;12.052;2023-10-09T09:05:46;21.40;66.30
19039;DHT22;9652;49.014;12.052;2023-10-09T09:08:22;21.50;65.90
19039;DHT22;9652;49.014;12.052;2023-10-09T09:10:57;21.60;65.50
19039;DHT22;9652;49.014;12.052;2023-10-09T09:13:41;21.70;65.50
19039;DHT22;9652;49.014;12.052;2023-10-09T09:16:15;21.80;65.80
19039;DHT22;9652;49.014;12.052;2023-10-09T09:18:50;21.90;65.80
19039;DHT22;9652;49.014;12.052;2023-10-09T09:21:28;21.90;65.00
19039;DHT22;9652;49.014;12.052;2023-10-09T09:24:03;22.00;65.30
19039;DHT22;9652;49.014;12.052;2023-10-09T09:26:42;22.10;65.10
19039;DHT22;9652;49.014;12.052;2023-10-09T09:29:14;22.30;65.00
19039;DHT22;9652;49.014;12.052;2023-10-09T09:31:54;22.30;64.60
19039;DHT22;9652;49.014;12.052;2023-10-09T09:34:23;22.40;63.70
19039;DHT22;9652;49.014;12.052;2023-10-09T09:36:57;22.50;64.00
19039;DHT22;9652;49.014;12.052;2023-10-09T09:39:29;22.60;63.60
19039;DHT22;9652;49.014;12.052;2023-10-09T09:41:57;22.60;63.50
19039;DHT22;9652;49.014;12.052;2023-10-09T09:44:31;22.70;63.30
19039;DHT22;9652;49.014;12.052;2023-10-09T09:47:00;22.70;63.00
19039;DHT22;9652;49.014;12.052;2023-10-09T09:49:30;22.80;62.90
19039;DHT22;9652;49.014;12.052;2023-10-09T09:52:02;22.80;62.60
19039;DHT22;9652;49.014;12.052;2023-10-09T09:54:36;22.80;62.30
19039;DHT22;9652;49.014;12.052;2023-10-09T09:57:07;22.90;62.50
19039;DHT22;9652;49.014;12.052;2023-10-09T09:59:39;22.90;62.00
19039;DHT22;9652;49.014;12.052;2023-10-09T10:02:20;23.00;62.20
19039;DHT22;9652;49.014;12.052;2023-10-09T10:04:56;23.00;62.00
19039;DHT22;9652;49.014;12.052;2023-10-09T10:07:27;23.10;62.30
19039;DHT22;9652;49.014;12.052;2023-10-09T10:09:57;23.20;62.30
19039;DHT22;9652;49.014;12.052;2023-10-09T10:12:49;23.30;62.50
19039;DHT22;9652;49.014;12.052;2023-10-09T10:15:59;23.40;61.60
19039;DHT22;9652;49.014;12.052;2023-10-09T10:18:32;23.60;61.10
19039;DHT22;9652;49.014;12.052;2023-10-09T10:21:11;23.70;61.60
19039;DHT22;9652;49.014;12.052;2023-10-09T10:23:43;23.90;60.40
19039;DHT22;9652;49.014;12.052;2023-10-09T10:26:17;23.90;60.60
19039;DHT22;9652;49.014;12.052;2023-10-09T10:29:15;23.90;60.00
19039;DHT22;9652;49.014;12.052;2023-10-09T10:31:56;23.90;59.10
19039;DHT22;9652;49.014;12.052;2023-10-09T10:34:26;23.90;59.60
19039;DHT22;9652;49.014;12.052;2023-10-09T10:37:21;23.80;59.50
19039;DHT22;9652;49.014;12.052;2023-10-09T10:39:55;23.70;59.40
19039;DHT22;9652;49.014;12.052;2023-10-09T10:42:25;23.70;59.30
19039;DHT22;9652;49.014;12.052;2023-10-09T10:45:00;23.60;59.50
19039;DHT22;9652;49.014;12.052;2023-10-09T10:47:41;23.50;59.60
19039;DHT22;9652;49.014;12.052;2023-10-09T10:50:08;23.40;59.70
19039;DHT22;9652;49.014;12.052;2023-10-09T10:53:08;23.30;59.80
19039;DHT22;9652;49.014;12.052;2023-10-09T10:55:54;23.20;60.00
19039;DHT22;9652;49.014;12.052;2023-10-09T10:58:22;23.20;60.80
19039;DHT22;9652;49.014;12.052;2023-10-09T11:01:01;23.10;61.20
19039;DHT22;9652;49.014;12.052;2023-10-09T11:03:41;23.10;61.80
19039;DHT22;9652;49.014;12.052;2023-10-09T11:06:27;22.90;62.50
19039;DHT22;9652;49.014;12.052;2023-10-09T11:09:03;22.90;63.20
19039;DHT22;9652;49.014;12.052;2023-10-09T11:11:51;22.90;63.00
19039;DHT22;9652;49.014;12.052;2023-10-09T11:14:21;22.80;62.60
19039;DHT22;9652;49.014;12.052;2023-10-09T11:16:49;22.70;62.70
19039;DHT22;9652;49.014;12.052;2023-10-09T11:19:23;22.60;63.30
19039;DHT22;9652;49.014;12.052;2023-10-09T11:21:58;22.70;63.60
19039;DHT22;9652;49.014;12.052;2023-10-09T11:24:49;22.60;63.80
19039;DHT22;9652;49.014;12.052;2023-10-09T11:27:36;22.60;64.20
19039;DHT22;9652;49.014;12.052;2023-10-09T11:30:06;22.60;64.40
19039;DHT22;9652;49.014;12.052;2023-10-09T11:32:36;22.60;64.60
19039;DHT22;9652;49.014;12.052;2023-10-09T11:35:12;22.60;64.70
19039;DHT22;9652;49.014;12.052;2023-10-09T11:37:43;22.70;64.90
19039;DHT22;9652;49.014;12.052;2023-10-09T11:40:28;22.70;64.90
19039;DHT22;9652;49.014;12.052;2023-10-09T11:43:01;22.80;64.90
19039;DHT22;9652;49.014;12.052;2023-10-09T11:45:29;22.80;64.70
19039;DHT22;9652;49.014;12.052;2023-10-09T11:48:17;22.90;64.50
19039;DHT22;9652;49.014;12.052;2023-10-09T11:50:53;22.90;63.80
19039;DHT22;9652;49.014;12.052;2023-10-09T11:53:22;22.90;63.80
19039;DHT22;9652;49.014;12.052;2023-10-09T11:56:02;23.00;63.60
19039;DHT22;9652;49.014;12.052;2023-10-09T11:58:29;22.90;63.30
19039;DHT22;9652;49.014;12.052;2023-10-09T12:00:58;22.90;63.30
19039;DHT22;9652;49.014;12.052;2023-10-09T12:03:30;22.80;63.10
19039;DHT22;9652;49.014;12.052;2023-10-09T12:05:58;22.80;63.00
19039;DHT22;9652;49.014;12.052;2023-10-09T12:08:30;22.70;63.00
19039;DHT22;9652;49.014;12.052;2023-10-09T12:10:58;22.70;63.30
19039;DHT22;9652;49.014;12.052;2023-10-09T12:13:29;22.60;63.70
19039;DHT22;9652;49.014;12.052;2023-10-09T12:15:56;22.70;63.40
19039;DHT22;9652;49.014;12.052;2023-10-09T12:18:24;22.60;63.30
19039;DHT22;9652;49.014;12.052;2023-10-09T12:20:51;22.60;63.20
19039;DHT22;9652;49.014;12.052;2023-10-09T12:23:22;22.60;63.90
19039;DHT22;9652;49.014;12.052;2023-10-09T12:25:53;22.60;63.10
19039;DHT22;9652;49.014;12.052;2023-10-09T12:28:22;22.60;63.10
19039;DHT22;9652;49.014;12.052;2023-10-09T12:30:51;22.60;63.10
19039;DHT22;9652;49.014;12.052;2023-10-09T12:33:18;22.60;62.80
19039;DHT22;9652;49.014;12.052;2023-10-09T12:35:53;22.50;62.80
19039;DHT22;9652;49.014;12.052;2023-10-09T12:38:25;22.60;62.80
19039;DHT22;9652;49.014;12.052;2023-10-09T12:41:01;22.60;62.90
19039;DHT22;9652;49.014;12.052;2023-10-09T12:43:34;22.60;63.30
19039;DHT22;9652;49.014;12.052;2023-10-09T12:46:06;22.60;63.60
19039;DHT22;9652;49.014;12.052;2023-10-09T12:48:34;22.70;63.50
19039;DHT22;9652;49.014;12.052;2023-10-09T12:51:01;22.70;63.40
19039;DHT22;9652;49.014;12.052;2023-10-09T12:53:31;22.80;63.20
19039;DHT22;9652;49.014;12.052;2023-10-09T12:55:59;22.70;62.80
19039;DHT22;9652;49.014;12.052;2023-10-09T12:58:26;22.80;62.50
19039;DHT22;9652;49.014;12.052;2023-10-09T13:00:53;22.80;62.10
19039;DHT22;9652;49.014;12.052;2023-10-09T13:03:22;22.80;62.00
19039;DHT22;9652;49.014;12.052;2023-10-09T13:05:54;22.70;62.00
19039;DHT22;9652;49.014;12.052;2023-10-09T13:08:25;22.70;62.80
19039;DHT22;9652;49.014;12.052;2023-10-09T13:11:01;22.60;62.20
19039;DHT22;9652;49.014;12.052;2023-10-09T13:13:37;22.60;62.50
19039;DHT22;9652;49.014;12.052;2023-10-09T13:16:09;22.50;62.50
19039;DHT22;9652;49.014;12.052;2023-10-09T13:18:50;22.50;62.90
19039;DHT22;9652;49.014;12.052;2023-10-09T13:21:18;22.40;63.30
19039;DHT22;9652;49.014;12.052;2023-10-09T13:23:46;22.40;63.40
19039;DHT22;9652;49.014;12.052;2023-10-09T13:26:15;22.40;64.30
19039;DHT22;9652;49.014;12.052;2023-10-09T13:28:51;22.40;63.60
19039;DHT22;9652;49.014;12.052;2023-10-09T13:31:20;22.40;63.80
19039;DHT22;9652;49.014;12.052;2023-10-09T13:33:52;22.40;63.80
19039;DHT22;9652;49.014;12.052;2023-10-09T13:36:21;22.40;64.10
19039;DHT22;9652;49.014;12.052;2023-10-09T13:38:58;22.40;64.20
19039;DHT22;9652;49.014;12.052;2023-10-09T13:41:28;22.50;64.10
19039;DHT22;9652;49.014;12.052;2023-10-09T13:43:55;22.60;63.70
19039;DHT22;9652;49.014;12.052;2023-10-09T13:46:23;22.60;63.40
19039;DHT22;9652;49.014;12.052;2023-10-09T13:48:51;22.70;63.00
19039;DHT22;9652;49.014;12.052;2023-10-09T13:51:19;22.70;62.80
19039;DHT22;9652;49.014;12.052;2023-10-09T13:53:49;22.70;62.60
19039;DHT22;9652;49.014;12.052;2023-10-09T13:56:18;22.80;62.30
19039;DHT22;9652;49.014;12.052;2023-10-09T13:58:47;22.80;62.20
19039;DHT22;9652;49.014;12.052;2023-10-09T14:01:16;22.80;62.00
19039;DHT22;9652;49.014;12.052;2023-10-09T14:03:55;22.80;62.00
19039;DHT22;9652;49.014;12.052;2023-10-09T14:06:22;22.80;61.60
19039;DHT22;9652;49.014;12.052;2023-10-09T14:08:58;22.80;61.50
19039;DHT22;9652;49.014;12.052;2023-10-09T14:11:26;22.80;61.40
19039;DHT22;9652;49.014;12.052;2023-10-09T14:13:53;22.80;61.40
19039;DHT22;9652;49.014;12.052;2023-10-09T14:16:20;22.80;61.30
19039;DHT22;9652;49.014;12.052;2023-10-09T14:18:55;22.80;61.10
19039;DHT22;9652;49.014;12.052;2023-10-09T14:21:27;22.80;60.70
19039;DHT22;9652;49.014;12.052;2023-10-09T14:23:56;22.70;60.60
19039;DHT22;9652;49.014;12.052;2023-10-09T14:26:27;22.80;60.60
19039;DHT22;9652;49.014;12.052;2023-10-09T14:28:56;22.80;60.60
19039;DHT22;9652;49.014;12.052;2023-10-09T14:31:24;22.80;61.00
19039;DHT22;9652;49.014;12.052;2023-10-09T14:33:55;22.80;60.40
19039;DHT22;9652;49.014;12.052;2023-10-09T14:36:24;22.80;60.20
19039;DHT22;9652;49.014;12.052;2023-10-09T14:38:59;22.80;60.10
19039;DHT22;9652;49.014;12.052;2023-10-09T14:41:27;22.80;59.90
19039;DHT22;9652;49.014;12.052;2023-10-09T14:43:58;22.90;59.90
19039;DHT22;9652;49.014;12.052;2023-10-09T14:46:26;22.90;59.70
19039;DHT22;9652;49.014;12.052;2023-10-09T14:48:55;22.90;59.50
19039;DHT22;9652;49.014;12.052;2023-10-09T14:51:24;22.90;59.40
19039;DHT22;9652;49.014;12.052;2023-10-09T14:53:55;22.90;59.40
19039;DHT22;9652;49.014;12.052;2023-10-09T14:56:27;22.90;59.30
19039;DHT22;9652;49.014;12.052;2023-10-09T14:59:00;22.80;59.10
19039;DHT22;9652;49.014;12.052;2023-10-09T15:01:27;22.80;59.00
19039;DHT22;9652;49.014;12.052;2023-10-09T15:03:58;22.80;59.00
19039;DHT22;9652;49.014;12.052;2023-10-09T15:06:26;22.80;59.00
19039;DHT22;9652;49.014;12.052;2023-10-09T15:08:56;22.80;59.00
19039;DHT22;9652;49.014;12.052;2023-10-09T15:11:26;22.80;59.00
19039;DHT22;9652;49.014;12.052;2023-10-09T15:13:55;22.80;58.90
19039;DHT22;9652;49.014;12.052;2023-10-09T15:16:24;22.80;58.80
19039;DHT22;9652;49.014;12.052;2023-10-09T15:18:54;22.70;58.60
19039;DHT22;9652;49.014;12.052;2023-10-09T15:21:30;22.70;58.50
19039;DHT22;9652;49.014;12.052;2023-10-09T15:23:59;22.70;58.50
19039;DHT22;9652;49.014;12.052;2023-10-09T15:26:26;22.70;58.50
19039;DHT22;9652;49.014;12.052;2023-10-09T15:29:00;22.70;58.50
19039;DHT22;9652;49.014;12.052;2023-10-09T15:31:30;22.70;58.30
19039;DHT22;9652;49.014;12.052;2023-10-09T15:33:58;22.60;58.20
19039;DHT22;9652;49.014;12.052;2023-10-09T15:36:25;22.60;58.30
19039;DHT22;9652;49.014;12.052;2023-10-09T15:38:56;22.70;58.40
19039;DHT22;9652;49.014;12.052;2023-10-09T15:41:27;22.60;58.30
19039;DHT22;9652;49.014;12.052;2023-10-09T15:43:57;22.60;58.20
19039;DHT22;9652;49.014;12.052;2023-10-09T15:46:26;22.60;58.10
19039;DHT22;9652;49.014;12.052;2023-10-09T15:48:59;22.50;58.00
19039;DHT22;9652;49.014;12.052;2023-10-09T15:51:27;22.60;58.00
19039;DHT22;9652;49.014;12.052;2023-10-09T15:53:56;22.50;57.80
19039;DHT22;9652;49.014;12.052;2023-10-09T15:56:24;22.50;57.90
19039;DHT22;9652;49.014;12.052;2023-10-09T15:58:52;22.50;57.90
19039;DHT22;9652;49.014;12.052;2023-10-09T16:01:21;22.40;58.50
19039;DHT22;9652;49.014;12.052;2023-10-09T16:03:49;22.40;57.90
19039;DHT22;9652;49.014;12.052;2023-10-09T16:06:17;22.40;58.00
19039;DHT22;9652;49.014;12.052;2023-10-09T16:08:46;22.40;57.90
19039;DHT22;9652;49.014;12.052;2023-10-09T16:11:20;22.30;57.80
19039;DHT22;9652;49.014;12.052;2023-10-09T16:13:49;22.30;57.70
19039;DHT22;9652;49.014;12.052;2023-10-09T16:16:24;22.20;57.80
19039;DHT22;9652;49.014;12.052;2023-10-09T16:18:51;22.20;57.60